Decoded Metar for EYKA (KAUNAS in LITHUANIA) (IATA:N/A) | Meteo·Mobile Aviation Weather
aviador You're here:

EYKA Decoded Metar

KAUNAS in LITHUANIA
Report Time2019-02-17 15:20:00
UTC Time2019-02-17 15:29:48
Flight Rules vfr VFR
Wind280° at 05 kt
W.Decomp.*RWY 26: 4.9 kt HW 1.2 kt RCW
W.Rank280° ranks 5
Current wind is below 280° avg. (7.4)
Visibility9999 m
Phenomena:N/A
Clouds:Scattered 020 Hf
Expected CloudBase > 1,200 ft AGL from Temp-Dew spread
CeilingNone
Temp05°C (ISA -9)
Dew Point02°C (81% RH)
AAT1.5°C
QNH1020 hPa
Density Alt-1,033 ft
Elevation253 ft
Report Wrong Elevation
Raw Report
EYKA 171520Z 28005KT 9999 SCT020 05/02 Q1020 R08/190095=

Extra information for EYKA:More info

Metar Taf Metar & Taf Last 4 Metars F.Rules Stats Wind Profile Meteogram Temp Stats Airport Information Weather charts Add Link Nearby VenuesMetar ALERT Operation Metar Decoded Social comments